Time;durP1;ratioP1;P1;durP2;ratioP2;P2;SDS_P1;SDS_P2;PMS_P1;PMS_P2;Temp;Humidity;BMP_temperature;BMP_pressure;BME280_temperature;BME280_humidity;BME280_pressure;Samples;Min_cycle;Max_cycle;Signal;HPM_P1;HPM_P2
2023/07/04 00:02:07;;;;;;;11.23;5.10;;;;;;;;;;5075003;28;20202;-67
2023/07/04 00:04:34;;;;;;;9.00;5.38;;;;;;;;;;5075904;28;20202;-67
2023/07/04 00:07:03;;;;;;;7.78;5.30;;;;;;;;;;5075993;28;20206;-68
2023/07/04 00:09:30;;;;;;;8.38;5.13;;;;;;;;;;5073962;28;20202;-67
2023/07/04 00:11:58;;;;;;;9.10;4.93;;;;;;;;;;5077046;28;20248;-67
2023/07/04 00:14:25;;;;;;;6.70;4.80;;;;;;;;;;5071526;28;20236;-68
2023/07/04 00:16:54;;;;;;;6.63;4.78;;;;;;;;;;5074871;28;20229;-67
2023/07/04 00:19:21;;;;;;;13.73;5.57;;;;;;;;;;5073377;28;20199;-67
2023/07/04 00:21:48;;;;;;;7.50;4.95;;;;;;;;;;5079318;28;20242;-67
2023/07/04 00:24:17;;;;;;;5.90;4.22;;;;;;;;;;5080710;28;20198;-67
2023/07/04 00:26:45;;;;;;;9.02;5.32;;;;;;;;;;5074812;28;20201;-67
2023/07/04 00:29:13;;;;;;;8.75;5.40;;;;;;;;;;5074653;28;20202;-68
2023/07/04 00:31:41;;;;;;;9.95;4.85;;;;;;;;;;5077304;28;20206;-68
2023/07/04 00:34:10;;;;;;;11.65;5.50;;;;;;;;;;5074900;28;20222;-68
2023/07/04 00:36:39;;;;;;;9.77;5.18;;;;;;;;;;5073863;28;20265;-67
2023/07/04 00:39:06;;;;;;;12.27;5.03;;;;;;;;;;5075129;28;20213;-67
2023/07/04 00:41:35;;;;;;;7.43;4.45;;;;;;;;;;5070163;28;20206;-66
2023/07/04 00:44:09;;;;;;;8.13;4.60;;;;;;;;;;5072192;28;20195;-66
2023/07/04 00:46:38;;;;;;;8.90;4.75;;;;;;;;;;5076896;28;20201;-67
2023/07/04 00:49:22;;;;;;;8.27;4.70;;;;;;;;;;5074230;28;20195;-67
2023/07/04 00:51:52;;;;;;;9.10;4.75;;;;;;;;;;5077630;28;20202;-66
2023/07/04 00:54:23;;;;;;;10.00;4.88;;;;;;;;;;5072477;28;20227;-66
2023/07/04 00:56:51;;;;;;;10.52;5.15;;;;;;;;;;5068254;28;20207;-66
2023/07/04 00:59:20;;;;;;;9.98;4.70;;;;;;;;;;5072297;28;20213;-66
2023/07/04 01:01:47;;;;;;;8.32;4.47;;;;;;;;;;5077064;28;20208;-67
2023/07/04 01:04:14;;;;;;;9.18;4.50;;;;;;;;;;5071962;28;20230;-67
2023/07/04 01:06:47;;;;;;;9.45;5.03;;;;;;;;;;5079116;28;20214;-67
2023/07/04 01:09:17;;;;;;;9.13;5.05;;;;;;;;;;5074015;28;20198;-67
2023/07/04 01:11:45;;;;;;;6.53;4.25;;;;;;;;;;5073302;28;20217;-67
2023/07/04 01:14:18;;;;;;;7.18;4.50;;;;;;;;;;5070589;28;20218;-66
2023/07/04 01:16:46;;;;;;;9.13;4.82;;;;;;;;;;5074059;28;20266;-67
2023/07/04 01:19:15;;;;;;;7.03;3.90;;;;;;;;;;5072442;28;20206;-67
2023/07/04 01:21:44;;;;;;;8.15;4.80;;;;;;;;;;5073012;28;20194;-66
2023/07/04 01:24:13;;;;;;;7.90;4.38;;;;;;;;;;5073710;28;20256;-66
2023/07/04 01:26:43;;;;;;;7.95;4.30;;;;;;;;;;5072586;28;20199;-67
2023/07/04 01:29:12;;;;;;;8.45;4.75;;;;;;;;;;5067127;28;20233;-68
2023/07/04 01:31:43;;;;;;;8.32;4.13;;;;;;;;;;5072382;28;20276;-67
2023/07/04 01:34:11;;;;;;;9.68;4.60;;;;;;;;;;5073285;28;20348;-67
2023/07/04 01:36:40;;;;;;;8.63;4.70;;;;;;;;;;5073353;28;20245;-67
2023/07/04 01:39:09;;;;;;;7.97;4.30;;;;;;;;;;5074939;28;20201;-67
2023/07/04 01:41:36;;;;;;;7.07;4.20;;;;;;;;;;5075797;28;20215;-67
2023/07/04 01:44:06;;;;;;;7.40;4.45;;;;;;;;;;5069337;28;20205;-67
2023/07/04 01:46:33;;;;;;;7.32;4.35;;;;;;;;;;5075373;28;20207;-67
2023/07/04 01:49:00;;;;;;;8.05;4.35;;;;;;;;;;5067936;28;20214;-67
2023/07/04 01:51:29;;;;;;;7.38;4.30;;;;;;;;;;5075722;28;20208;-67
2023/07/04 01:53:56;;;;;;;10.13;4.95;;;;;;;;;;5077259;28;20248;-67
2023/07/04 01:56:23;;;;;;;7.97;4.25;;;;;;;;;;5077025;28;20205;-67
2023/07/04 01:58:51;;;;;;;8.13;4.70;;;;;;;;;;5076048;28;20198;-67
2023/07/04 02:01:19;;;;;;;9.45;4.75;;;;;;;;;;5072957;28;20211;-67
2023/07/04 02:03:46;;;;;;;6.40;4.00;;;;;;;;;;5067675;28;20207;-67
2023/07/04 02:06:14;;;;;;;7.72;4.38;;;;;;;;;;5075277;28;20206;-68
2023/07/04 02:08:41;;;;;;;7.57;4.22;;;;;;;;;;5078148;28;20209;-68
2023/07/04 02:11:08;;;;;;;7.43;3.97;;;;;;;;;;5076983;28;20209;-68
2023/07/04 02:13:35;;;;;;;7.57;3.88;;;;;;;;;;5076307;28;20202;-68
2023/07/04 02:16:02;;;;;;;8.07;4.22;;;;;;;;;;5079326;28;20218;-68
2023/07/04 02:18:31;;;;;;;8.18;3.95;;;;;;;;;;5071605;28;20203;-68
2023/07/04 02:20:58;;;;;;;9.98;4.13;;;;;;;;;;5072361;28;20214;-68
2023/07/04 02:23:26;;;;;;;7.35;3.70;;;;;;;;;;5079061;28;20201;-68
2023/07/04 02:25:54;;;;;;;6.97;4.00;;;;;;;;;;5077669;28;20205;-68
2023/07/04 02:28:21;;;;;;;5.18;3.40;;;;;;;;;;5075769;28;20209;-68
2023/07/04 02:30:55;;;;;;;7.72;4.28;;;;;;;;;;5078762;28;20202;-68
2023/07/04 02:33:22;;;;;;;8.20;3.80;;;;;;;;;;5080613;28;20238;-68
2023/07/04 02:35:51;;;;;;;8.75;4.07;;;;;;;;;;5077514;28;20221;-68
2023/07/04 02:38:19;;;;;;;8.18;4.18;;;;;;;;;;5078266;28;20234;-68
2023/07/04 02:40:47;;;;;;;5.88;3.67;;;;;;;;;;5074257;28;20214;-68
2023/07/04 02:43:14;;;;;;;10.02;3.85;;;;;;;;;;5076730;28;20206;-68
2023/07/04 02:45:41;;;;;;;5.15;3.70;;;;;;;;;;5077310;28;20202;-68
2023/07/04 02:48:09;;;;;;;7.50;3.63;;;;;;;;;;5075442;28;20206;-68
2023/07/04 02:50:36;;;;;;;5.70;3.03;;;;;;;;;;5076350;28;20199;-68
2023/07/04 02:53:04;;;;;;;6.57;3.58;;;;;;;;;;5076313;28;20198;-68
2023/07/04 02:55:32;;;;;;;6.68;3.72;;;;;;;;;;5075080;28;20222;-68
2023/07/04 02:57:59;;;;;;;6.47;3.53;;;;;;;;;;5071065;28;20205;-68
2023/07/04 03:00:26;;;;;;;5.97;3.85;;;;;;;;;;5074280;28;20199;-68
2023/07/04 03:02:53;;;;;;;7.47;3.67;;;;;;;;;;5074985;28;20211;-68
2023/07/04 03:05:21;;;;;;;8.40;3.42;;;;;;;;;;5075927;28;20199;-68
2023/07/04 03:07:48;;;;;;;6.93;3.50;;;;;;;;;;5082684;28;20198;-68
2023/07/04 03:10:16;;;;;;;7.50;3.78;;;;;;;;;;5071977;28;20203;-68
2023/07/04 03:12:43;;;;;;;5.60;3.42;;;;;;;;;;5072721;28;20194;-68
2023/07/04 03:15:11;;;;;;;6.00;3.65;;;;;;;;;;5077445;28;20229;-68
2023/07/04 03:17:39;;;;;;;5.68;3.40;;;;;;;;;;5072941;28;20207;-68
2023/07/04 03:20:09;;;;;;;6.03;3.50;;;;;;;;;;5069708;28;20203;-68
2023/07/04 03:22:37;;;;;;;9.85;3.70;;;;;;;;;;5075803;28;20211;-68
2023/07/04 03:25:04;;;;;;;7.57;3.70;;;;;;;;;;5080730;28;20203;-68
2023/07/04 03:27:33;;;;;;;8.10;3.25;;;;;;;;;;5072393;28;20221;-68
2023/07/04 03:30:01;;;;;;;6.93;3.05;;;;;;;;;;5068768;28;20207;-68
2023/07/04 03:32:28;;;;;;;5.78;3.17;;;;;;;;;;5072505;28;20209;-67
2023/07/04 03:35:00;;;;;;;6.07;2.97;;;;;;;;;;5073634;28;20246;-67
2023/07/04 03:37:28;;;;;;;6.13;3.05;;;;;;;;;;5072995;28;20257;-67
2023/07/04 03:39:55;;;;;;;5.55;3.38;;;;;;;;;;5073313;28;20206;-68
2023/07/04 03:42:22;;;;;;;5.93;3.20;;;;;;;;;;5075399;28;20218;-68
2023/07/04 03:44:50;;;;;;;7.80;3.20;;;;;;;;;;5074656;28;20198;-68
2023/07/04 03:47:18;;;;;;;8.23;3.20;;;;;;;;;;5080154;28;20206;-67
2023/07/04 03:49:45;;;;;;;5.47;3.40;;;;;;;;;;5071510;28;20203;-68
2023/07/04 03:52:12;;;;;;;6.82;3.28;;;;;;;;;;5079438;28;20202;-68
2023/07/04 03:54:40;;;;;;;6.22;3.17;;;;;;;;;;5074744;28;20206;-68
2023/07/04 03:57:07;;;;;;;5.55;3.05;;;;;;;;;;5074729;28;20213;-68
2023/07/04 03:59:34;;;;;;;9.13;3.40;;;;;;;;;;5072068;28;20198;-68
2023/07/04 04:02:03;;;;;;;5.22;3.22;;;;;;;;;;5069349;28;20198;-66
2023/07/04 04:04:30;;;;;;;5.55;3.65;;;;;;;;;;5072886;28;20203;-67
2023/07/04 04:06:58;;;;;;;6.45;3.60;;;;;;;;;;5080422;28;20210;-67
2023/07/04 04:09:25;;;;;;;5.93;3.25;;;;;;;;;;5072422;28;20206;-67
2023/07/04 04:11:52;;;;;;;7.60;3.10;;;;;;;;;;5073313;28;20198;-67
2023/07/04 04:14:20;;;;;;;4.70;2.72;;;;;;;;;;5074548;28;20203;-67
2023/07/04 04:16:47;;;;;;;5.15;3.15;;;;;;;;;;5077376;28;20210;-67
2023/07/04 04:19:15;;;;;;;8.88;3.53;;;;;;;;;;5072326;28;20202;-67
2023/07/04 04:21:43;;;;;;;7.75;3.28;;;;;;;;;;5076559;28;20202;-67
2023/07/04 04:24:10;;;;;;;7.50;3.65;;;;;;;;;;5069687;28;20202;-68
2023/07/04 04:26:39;;;;;;;7.03;3.22;;;;;;;;;;5073619;28;20194;-68
2023/07/04 04:29:06;;;;;;;8.25;3.88;;;;;;;;;;5071131;28;20282;-67
2023/07/04 04:31:37;;;;;;;7.28;3.35;;;;;;;;;;5072991;28;20294;-67
2023/07/04 04:34:05;;;;;;;7.68;3.47;;;;;;;;;;5080243;28;20287;-67
2023/07/04 04:36:34;;;;;;;7.38;3.13;;;;;;;;;;5073884;28;20237;-67
2023/07/04 04:39:01;;;;;;;6.03;3.45;;;;;;;;;;5071539;28;20199;-70
2023/07/04 04:41:29;;;;;;;6.28;3.20;;;;;;;;;;5070889;28;20279;-69
2023/07/04 04:43:56;;;;;;;5.63;3.20;;;;;;;;;;5075499;28;20206;-70
2023/07/04 04:46:24;;;;;;;6.90;3.55;;;;;;;;;;5070957;28;20199;-70
2023/07/04 04:48:51;;;;;;;7.03;3.17;;;;;;;;;;5074122;28;20221;-70
2023/07/04 04:51:22;;;;;;;8.60;3.22;;;;;;;;;;5068339;28;20210;-71
2023/07/04 04:53:50;;;;;;;8.43;3.47;;;;;;;;;;5076377;28;20198;-71
2023/07/04 04:56:18;;;;;;;7.47;3.20;;;;;;;;;;5070026;28;20223;-71
2023/07/04 04:58:45;;;;;;;5.80;3.00;;;;;;;;;;5075292;28;20288;-71
2023/07/04 05:01:15;;;;;;;8.85;2.95;;;;;;;;;;5071860;28;20201;-71
2023/07/04 05:03:42;;;;;;;10.05;3.25;;;;;;;;;;5069073;28;20206;-71
2023/07/04 05:06:09;;;;;;;5.72;3.03;;;;;;;;;;5071005;28;20198;-71
2023/07/04 05:08:36;;;;;;;6.78;3.25;;;;;;;;;;5069619;28;20210;-71
2023/07/04 05:11:06;;;;;;;7.28;3.35;;;;;;;;;;5074526;28;20206;-70
2023/07/04 05:13:34;;;;;;;6.07;3.20;;;;;;;;;;5067359;28;20210;-71
2023/07/04 05:16:01;;;;;;;6.28;3.53;;;;;;;;;;5072255;28;20218;-71
2023/07/04 05:18:29;;;;;;;9.70;3.88;;;;;;;;;;5071851;28;20198;-72
2023/07/04 05:21:03;;;;;;;8.07;3.80;;;;;;;;;;5069285;28;20214;-72
2023/07/04 05:23:30;;;;;;;8.35;4.05;;;;;;;;;;5066028;28;20248;-72
2023/07/04 05:26:06;;;;;;;7.22;3.60;;;;;;;;;;5070879;28;20264;-73
2023/07/04 05:28:34;;;;;;;6.68;3.60;;;;;;;;;;5072862;28;20225;-72
2023/07/04 05:31:02;;;;;;;7.35;3.80;;;;;;;;;;5073663;28;20217;-72
2023/07/04 05:33:30;;;;;;;8.18;4.28;;;;;;;;;;5072503;28;20202;-71
2023/07/04 05:36:07;;;;;;;11.93;4.40;;;;;;;;;;5071124;28;20230;-73
2023/07/04 05:38:34;;;;;;;8.70;3.70;;;;;;;;;;5070543;28;20230;-72
2023/07/04 05:41:02;;;;;;;8.85;3.97;;;;;;;;;;5070908;28;20210;-73
2023/07/04 05:43:29;;;;;;;6.07;3.45;;;;;;;;;;5071858;28;20202;-73
2023/07/04 05:45:58;;;;;;;5.72;3.47;;;;;;;;;;5073243;28;20226;-73
2023/07/04 05:48:25;;;;;;;8.95;3.75;;;;;;;;;;5070096;28;20293;-73
2023/07/04 05:50:53;;;;;;;7.63;3.30;;;;;;;;;;5076697;28;20198;-73
2023/07/04 05:53:21;;;;;;;7.45;3.60;;;;;;;;;;5075164;28;20209;-74
2023/07/04 05:55:49;;;;;;;11.30;3.78;;;;;;;;;;5078842;28;20217;-74
2023/07/04 05:58:16;;;;;;;6.55;3.22;;;;;;;;;;5081669;28;20217;-75
2023/07/04 06:00:43;;;;;;;9.13;3.40;;;;;;;;;;5077578;28;20194;-74
2023/07/04 06:03:11;;;;;;;10.65;3.47;;;;;;;;;;5082732;28;20210;-74
2023/07/04 06:05:40;;;;;;;7.03;3.30;;;;;;;;;;5075504;28;20297;-74
2023/07/04 06:08:07;;;;;;;7.20;3.25;;;;;;;;;;5073782;28;20259;-75
2023/07/04 06:10:34;;;;;;;8.13;2.85;;;;;;;;;;5080086;28;20228;-75
2023/07/04 06:13:02;;;;;;;8.80;3.45;;;;;;;;;;5076946;28;20213;-75
2023/07/04 06:15:29;;;;;;;7.28;3.40;;;;;;;;;;5075605;28;20211;-75
2023/07/04 06:17:56;;;;;;;8.30;3.13;;;;;;;;;;5074798;28;20203;-76
2023/07/04 06:20:25;;;;;;;7.68;3.00;;;;;;;;;;5076227;28;20217;-76
2023/07/04 06:22:52;;;;;;;8.13;3.10;;;;;;;;;;5079628;28;20199;-75
2023/07/04 06:25:19;;;;;;;8.27;3.65;;;;;;;;;;5078428;28;20210;-75
2023/07/04 06:27:46;;;;;;;7.75;3.17;;;;;;;;;;5080167;28;20208;-76
2023/07/04 06:30:14;;;;;;;10.93;3.50;;;;;;;;;;5063756;28;20211;-76
2023/07/04 06:32:42;;;;;;;8.30;3.15;;;;;;;;;;5081814;28;20202;-75
2023/07/04 06:35:09;;;;;;;9.30;2.92;;;;;;;;;;5072455;28;20202;-73
2023/07/04 06:37:39;;;;;;;9.20;3.75;;;;;;;;;;5078594;28;20238;-76
2023/07/04 06:40:08;;;;;;;7.28;2.90;;;;;;;;;;5079442;28;20205;-76
2023/07/04 06:42:35;;;;;;;9.75;3.10;;;;;;;;;;5080527;28;20210;-76
2023/07/04 06:45:02;;;;;;;9.15;3.03;;;;;;;;;;5082531;28;20203;-76
2023/07/04 06:47:29;;;;;;;10.00;3.47;;;;;;;;;;5077107;28;20233;-76
2023/07/04 06:49:56;;;;;;;8.48;2.85;;;;;;;;;;5076250;28;20207;-76
2023/07/04 06:52:24;;;;;;;6.55;2.92;;;;;;;;;;5079261;28;20213;-76
2023/07/04 06:54:52;;;;;;;9.35;3.58;;;;;;;;;;5079446;28;20212;-76
2023/07/04 06:57:20;;;;;;;6.95;3.10;;;;;;;;;;5074601;28;20257;-76
2023/07/04 06:59:47;;;;;;;9.75;3.22;;;;;;;;;;5073754;28;20309;-75
2023/07/04 07:02:15;;;;;;;10.23;3.25;;;;;;;;;;5075114;28;20198;-76
2023/07/04 07:04:42;;;;;;;11.35;3.53;;;;;;;;;;5081316;28;20209;-75
2023/07/04 07:07:10;;;;;;;7.53;3.08;;;;;;;;;;5082837;28;20201;-76
2023/07/04 07:09:38;;;;;;;5.10;2.95;;;;;;;;;;5082341;28;20199;-77
2023/07/04 07:12:08;;;;;;;7.63;2.85;;;;;;;;;;5078068;28;20232;-76
2023/07/04 07:14:35;;;;;;;4.82;2.63;;;;;;;;;;5085870;28;20216;-75
2023/07/04 07:17:02;;;;;;;6.30;2.78;;;;;;;;;;5079267;28;20230;-76
2023/07/04 07:19:30;;;;;;;7.70;2.80;;;;;;;;;;5090155;28;20203;-76
2023/07/04 07:21:57;;;;;;;9.27;2.83;;;;;;;;;;5078661;28;20206;-75
2023/07/04 07:24:24;;;;;;;11.40;3.03;;;;;;;;;;5076481;28;20199;-76
2023/07/04 07:26:51;;;;;;;6.97;2.85;;;;;;;;;;5078160;28;20221;-76
2023/07/04 07:29:20;;;;;;;6.80;2.78;;;;;;;;;;5086152;28;20206;-75
2023/07/04 07:31:49;;;;;;;4.57;2.78;;;;;;;;;;5071901;28;20203;-77
2023/07/04 07:34:16;;;;;;;6.20;2.97;;;;;;;;;;5076543;28;20223;-76
2023/07/04 07:36:44;;;;;;;8.05;3.05;;;;;;;;;;5078173;28;20230;-75
2023/07/04 07:39:12;;;;;;;9.30;3.28;;;;;;;;;;5074500;28;20198;-76
2023/07/04 07:41:40;;;;;;;6.78;3.25;;;;;;;;;;5075911;28;20210;-76
2023/07/04 07:44:08;;;;;;;6.82;2.65;;;;;;;;;;5076792;28;20296;-77
2023/07/04 07:46:37;;;;;;;5.55;2.65;;;;;;;;;;5077866;28;20199;-76
2023/07/04 07:49:04;;;;;;;6.35;2.65;;;;;;;;;;5076610;28;20194;-76
2023/07/04 07:51:31;;;;;;;5.15;2.85;;;;;;;;;;5069392;28;20209;-76
2023/07/04 07:53:59;;;;;;;6.80;2.90;;;;;;;;;;5072183;28;20216;-76
2023/07/04 07:56:27;;;;;;;7.20;2.42;;;;;;;;;;5083234;28;20227;-77
2023/07/04 07:58:54;;;;;;;9.75;3.38;;;;;;;;;;5072394;28;20285;-76
2023/07/04 08:01:23;;;;;;;6.45;3.03;;;;;;;;;;5076592;28;20206;-73
2023/07/04 08:03:51;;;;;;;6.03;3.05;;;;;;;;;;5081702;28;20257;-76
2023/07/04 08:06:22;;;;;;;9.43;3.40;;;;;;;;;;5074109;28;20211;-76
2023/07/04 08:08:49;;;;;;;5.60;2.75;;;;;;;;;;5082197;28;20213;-76
2023/07/04 08:11:16;;;;;;;6.40;2.97;;;;;;;;;;5072700;28;20195;-74
2023/07/04 08:13:44;;;;;;;6.13;2.95;;;;;;;;;;5079993;28;20214;-76
2023/07/04 08:16:11;;;;;;;7.68;3.28;;;;;;;;;;5073737;28;20214;-76
2023/07/04 08:18:40;;;;;;;6.65;2.55;;;;;;;;;;5082272;28;20199;-77
2023/07/04 08:21:08;;;;;;;9.02;3.15;;;;;;;;;;5074018;28;20206;-77
2023/07/04 08:23:35;;;;;;;8.73;3.20;;;;;;;;;;5077276;28;20210;-77
2023/07/04 08:26:02;;;;;;;8.10;3.05;;;;;;;;;;5077268;28;20198;-76
2023/07/04 08:28:30;;;;;;;9.70;3.55;;;;;;;;;;5081392;28;20360;-77
2023/07/04 08:31:03;;;;;;;9.27;3.25;;;;;;;;;;5077415;28;20202;-76
2023/07/04 08:33:30;;;;;;;7.43;3.30;;;;;;;;;;5082668;28;20213;-75
2023/07/04 08:35:58;;;;;;;6.90;2.80;;;;;;;;;;5075020;28;20195;-77
2023/07/04 08:38:27;;;;;;;6.80;3.38;;;;;;;;;;5076593;28;20234;-77
2023/07/04 08:40:54;;;;;;;5.32;3.08;;;;;;;;;;5082898;28;20202;-77
2023/07/04 08:43:26;;;;;;;7.25;3.13;;;;;;;;;;5075773;28;20207;-73
2023/07/04 08:45:53;;;;;;;9.38;2.80;;;;;;;;;;5080174;28;20202;-76
2023/07/04 08:48:22;;;;;;;6.85;3.47;;;;;;;;;;5078780;28;20211;-75
2023/07/04 08:50:49;;;;;;;7.57;3.33;;;;;;;;;;5077956;28;20202;-76
2023/07/04 08:53:17;;;;;;;8.27;3.28;;;;;;;;;;5078694;28;20221;-77
2023/07/04 08:55:50;;;;;;;8.05;3.45;;;;;;;;;;5077786;28;20206;-76
2023/07/04 08:58:18;;;;;;;6.75;3.13;;;;;;;;;;5075309;28;20229;-75
2023/07/04 09:00:46;;;;;;;8.82;3.20;;;;;;;;;;5078211;28;20209;-76
2023/07/04 09:03:18;;;;;;;6.78;2.75;;;;;;;;;;5077091;28;20262;-77
2023/07/04 09:05:51;;;;;;;8.68;3.47;;;;;;;;;;5074775;28;20264;-77
2023/07/04 09:08:23;;;;;;;8.82;3.22;;;;;;;;;;5074258;28;20217;-76
2023/07/04 09:10:53;;;;;;;6.60;3.20;;;;;;;;;;5068308;28;20206;-76
2023/07/04 09:13:25;;;;;;;7.30;3.00;;;;;;;;;;5064616;28;20232;-76
2023/07/04 09:15:53;;;;;;;5.65;2.85;;;;;;;;;;5064672;28;20321;-76
2023/07/04 09:18:23;;;;;;;6.47;2.70;;;;;;;;;;5070281;28;20226;-76
2023/07/04 09:20:54;;;;;;;5.68;2.95;;;;;;;;;;5076324;28;20226;-76
2023/07/04 09:23:23;;;;;;;5.90;2.78;;;;;;;;;;5062303;27;20237;-66
2023/07/04 09:25:52;;;;;;;11.52;3.25;;;;;;;;;;5066989;28;20269;-65
2023/07/04 09:28:19;;;;;;;9.70;2.90;;;;;;;;;;5070904;28;20210;-65
2023/07/04 09:30:47;;;;;;;6.88;3.00;;;;;;;;;;5081869;28;20194;-66
2023/07/04 09:33:15;;;;;;;4.93;2.78;;;;;;;;;;5077726;28;20209;-65
2023/07/04 09:35:42;;;;;;;5.00;2.95;;;;;;;;;;5081298;28;20207;-65
2023/07/04 09:38:10;;;;;;;4.85;2.92;;;;;;;;;;5072093;28;20233;-64
2023/07/04 09:40:44;;;;;;;6.90;3.17;;;;;;;;;;5074705;28;20224;-62
2023/07/04 09:43:13;;;;;;;6.07;3.00;;;;;;;;;;5073578;28;20206;-64
2023/07/04 09:45:41;;;;;;;6.68;3.38;;;;;;;;;;5073490;28;20203;-63
2023/07/04 09:48:10;;;;;;;5.88;3.00;;;;;;;;;;5082265;28;20199;-64
2023/07/04 09:50:38;;;;;;;4.95;2.90;;;;;;;;;;5079381;28;20268;-64
2023/07/04 09:53:07;;;;;;;4.93;2.80;;;;;;;;;;5072102;28;20203;-64
2023/07/04 09:55:35;;;;;;;4.43;2.55;;;;;;;;;;5076328;28;20206;-64
2023/07/04 09:58:20;;;;;;;5.78;2.60;;;;;;;;;;5084982;28;20222;-63
2023/07/04 10:01:00;;;;;;;5.03;3.20;;;;;;;;;;5076411;28;20292;-63
2023/07/04 10:03:27;;;;;;;5.53;2.88;;;;;;;;;;5075691;28;20254;-63
2023/07/04 10:05:55;;;;;;;5.25;2.63;;;;;;;;;;5085496;28;20297;-64
2023/07/04 10:08:22;;;;;;;6.22;2.88;;;;;;;;;;5077934;28;20203;-65
2023/07/04 10:10:53;;;;;;;4.68;2.70;;;;;;;;;;5073508;28;20203;-63
2023/07/04 10:13:22;;;;;;;5.95;3.08;;;;;;;;;;5070626;28;20203;-65
2023/07/04 10:15:50;;;;;;;9.15;3.17;;;;;;;;;;5070799;28;20210;-63
2023/07/04 10:18:25;;;;;;;4.95;2.60;;;;;;;;;;5079455;28;20214;-63
2023/07/04 10:20:53;;;;;;;4.65;2.90;;;;;;;;;;5071844;28;20206;-64
2023/07/04 10:23:21;;;;;;;7.03;3.33;;;;;;;;;;5075473;28;20207;-64
2023/07/04 10:25:48;;;;;;;4.28;2.92;;;;;;;;;;5073675;28;20222;-64
2023/07/04 10:28:17;;;;;;;5.35;2.90;;;;;;;;;;5077727;28;20202;-64
2023/07/04 10:30:49;;;;;;;4.85;3.20;;;;;;;;;;5078853;28;20307;-64
2023/07/04 10:33:17;;;;;;;4.32;3.00;;;;;;;;;;5070365;28;20298;-64
2023/07/04 10:35:47;;;;;;;8.00;3.10;;;;;;;;;;5078740;28;20206;-63
2023/07/04 10:38:20;;;;;;;4.18;2.92;;;;;;;;;;5078106;28;20229;-63
2023/07/04 10:40:48;;;;;;;5.63;3.40;;;;;;;;;;5077868;28;20211;-64
2023/07/04 10:43:21;;;;;;;7.68;3.15;;;;;;;;;;5077346;28;20286;-63
2023/07/04 10:45:49;;;;;;;6.22;3.03;;;;;;;;;;5082278;28;20202;-63
2023/07/04 10:48:17;;;;;;;6.18;3.25;;;;;;;;;;5080181;28;20209;-63
2023/07/04 10:50:47;;;;;;;5.63;3.20;;;;;;;;;;5079303;28;20203;-63
2023/07/04 10:53:17;;;;;;;5.30;3.13;;;;;;;;;;5076858;28;20209;-63
2023/07/04 10:55:46;;;;;;;5.40;2.90;;;;;;;;;;5079328;28;20213;-64
2023/07/04 10:58:15;;;;;;;6.93;3.03;;;;;;;;;;5078000;28;20226;-63
2023/07/04 11:00:44;;;;;;;3.85;3.17;;;;;;;;;;5079101;28;20211;-63
2023/07/04 11:03:16;;;;;;;4.43;2.88;;;;;;;;;;5082547;28;20198;-62
2023/07/04 11:05:45;;;;;;;5.25;3.28;;;;;;;;;;5079639;28;20206;-63
2023/07/04 11:08:15;;;;;;;4.28;3.42;;;;;;;;;;5079040;28;20202;-62
2023/07/04 11:10:43;;;;;;;5.03;3.30;;;;;;;;;;5084712;28;20202;-63
2023/07/04 11:13:14;;;;;;;3.22;2.53;;;;;;;;;;5075411;28;20195;-64
2023/07/04 11:15:42;;;;;;;5.10;2.83;;;;;;;;;;5082882;28;20203;-65
2023/07/04 11:18:15;;;;;;;5.65;3.25;;;;;;;;;;5074345;28;20272;-63
2023/07/04 11:20:54;;;;;;;6.03;2.92;;;;;;;;;;5075171;28;20295;-65
2023/07/04 11:23:22;;;;;;;5.70;3.17;;;;;;;;;;5079766;28;20214;-64
2023/07/04 11:26:00;;;;;;;6.20;2.92;;;;;;;;;;5078542;28;20201;-63
2023/07/04 11:28:43;;;;;;;5.20;2.70;;;;;;;;;;5077238;28;20228;-64
2023/07/04 11:31:15;;;;;;;7.28;2.90;;;;;;;;;;5079240;28;20233;-63
2023/07/04 11:33:44;;;;;;;4.10;2.60;;;;;;;;;;5079287;28;20195;-63
2023/07/04 11:36:19;;;;;;;3.47;2.85;;;;;;;;;;5077964;28;20293;-63
2023/07/04 11:38:59;;;;;;;5.22;3.08;;;;;;;;;;5071269;28;20234;-63
2023/07/04 11:41:30;;;;;;;7.57;3.35;;;;;;;;;;5077024;28;20203;-65
2023/07/04 11:43:58;;;;;;;4.85;3.38;;;;;;;;;;5075562;28;20231;-64
2023/07/04 11:46:28;;;;;;;5.18;3.10;;;;;;;;;;5073295;28;20298;-64
2023/07/04 11:48:56;;;;;;;4.30;2.65;;;;;;;;;;5076780;28;20241;-62
2023/07/04 11:51:25;;;;;;;3.83;2.95;;;;;;;;;;5074283;28;20206;-62
2023/07/04 11:53:56;;;;;;;4.68;2.97;;;;;;;;;;5074825;28;20198;-63
2023/07/04 11:56:35;;;;;;;5.32;2.78;;;;;;;;;;5069213;28;20202;-63
2023/07/04 11:59:22;;;;;;;5.25;3.40;;;;;;;;;;5076121;28;20226;-63
2023/07/04 12:02:14;;;;;;;5.90;3.20;;;;;;;;;;5072886;28;20206;-63
2023/07/04 12:04:49;;;;;;;6.47;2.83;;;;;;;;;;5074680;28;20298;-63
2023/07/04 12:07:22;;;;;;;5.03;3.20;;;;;;;;;;5073654;28;20228;-62
2023/07/04 12:09:51;;;;;;;4.65;3.35;;;;;;;;;;5072946;28;20194;-63
2023/07/04 12:12:23;;;;;;;3.85;2.88;;;;;;;;;;5067234;28;20203;-63
2023/07/04 12:14:52;;;;;;;4.35;3.10;;;;;;;;;;5066246;28;20206;-63
2023/07/04 12:17:21;;;;;;;3.35;2.90;;;;;;;;;;5067047;28;20194;-63
2023/07/04 12:19:55;;;;;;;4.88;3.33;;;;;;;;;;5069158;28;20195;-64
2023/07/04 12:22:24;;;;;;;5.43;3.30;;;;;;;;;;5070652;28;20264;-65
2023/07/04 12:24:51;;;;;;;5.40;3.20;;;;;;;;;;5068928;28;20275;-64
2023/07/04 12:27:19;;;;;;;5.25;3.05;;;;;;;;;;5071748;28;20202;-64
2023/07/04 12:29:46;;;;;;;5.97;3.42;;;;;;;;;;5062788;28;20219;-63
2023/07/04 12:32:18;;;;;;;5.93;3.38;;;;;;;;;;5069467;28;20202;-64
2023/07/04 12:34:45;;;;;;;5.45;4.15;;;;;;;;;;5072512;28;20206;-64
2023/07/04 12:37:16;;;;;;;4.22;3.25;;;;;;;;;;5071218;28;20284;-64
2023/07/04 12:39:46;;;;;;;6.70;3.83;;;;;;;;;;5064484;28;20257;-63
2023/07/04 12:42:18;;;;;;;5.00;3.53;;;;;;;;;;5071295;28;20205;-64
2023/07/04 12:44:45;;;;;;;6.63;3.53;;;;;;;;;;5074905;28;20210;-63
2023/07/04 12:47:16;;;;;;;5.90;3.45;;;;;;;;;;5074560;28;20199;-63
2023/07/04 12:49:43;;;;;;;5.78;3.50;;;;;;;;;;5072315;28;20201;-64
2023/07/04 12:52:11;;;;;;;5.25;3.47;;;;;;;;;;5074200;28;20207;-62
2023/07/04 12:54:39;;;;;;;6.13;4.10;;;;;;;;;;5074361;28;20206;-63
2023/07/04 12:57:13;;;;;;;6.43;4.07;;;;;;;;;;5071156;28;20211;-63
2023/07/04 12:59:40;;;;;;;5.45;3.80;;;;;;;;;;5074974;28;20230;-65
2023/07/04 13:02:13;;;;;;;5.40;3.72;;;;;;;;;;5069474;28;20318;-63
2023/07/04 13:04:41;;;;;;;7.30;3.90;;;;;;;;;;5069756;28;20206;-67
2023/07/04 13:07:08;;;;;;;5.28;4.30;;;;;;;;;;5073744;28;20198;-65
2023/07/04 13:09:37;;;;;;;4.60;3.70;;;;;;;;;;5074866;28;20316;-65
2023/07/04 13:12:05;;;;;;;6.65;3.88;;;;;;;;;;5072232;28;20207;-63
2023/07/04 13:14:33;;;;;;;4.82;3.70;;;;;;;;;;5067316;28;20206;-63
2023/07/04 13:17:10;;;;;;;4.22;3.58;;;;;;;;;;5073404;28;20209;-63
2023/07/04 13:19:39;;;;;;;4.68;3.80;;;;;;;;;;5072754;28;20226;-63
2023/07/04 13:22:14;;;;;;;6.95;4.13;;;;;;;;;;5073974;28;20206;-64
2023/07/04 13:24:41;;;;;;;4.32;3.70;;;;;;;;;;5067650;28;20336;-62
2023/07/04 13:27:13;;;;;;;6.22;4.00;;;;;;;;;;5071896;28;20202;-72
2023/07/04 13:29:50;;;;;;;5.25;3.70;;;;;;;;;;5074217;28;20284;-72
2023/07/04 13:32:24;;;;;;;5.63;3.47;;;;;;;;;;5065904;28;20202;-72
2023/07/04 13:34:52;;;;;;;6.22;4.13;;;;;;;;;;5065559;28;20198;-74
2023/07/04 13:37:19;;;;;;;6.25;4.43;;;;;;;;;;5069162;28;20230;-72
2023/07/04 13:39:47;;;;;;;5.18;3.92;;;;;;;;;;5070238;28;20236;-73
2023/07/04 13:42:16;;;;;;;5.68;4.32;;;;;;;;;;5071697;28;20250;-72
2023/07/04 13:44:43;;;;;;;5.60;3.90;;;;;;;;;;5076633;28;20198;-73
2023/07/04 13:47:13;;;;;;;5.25;4.40;;;;;;;;;;5077819;28;20202;-72
2023/07/04 13:49:40;;;;;;;6.22;4.22;;;;;;;;;;5075592;28;20194;-73
2023/07/04 13:52:08;;;;;;;6.13;4.30;;;;;;;;;;5069406;28;20247;-73
2023/07/04 13:54:35;;;;;;;5.82;4.30;;;;;;;;;;5069120;28;20198;-74
2023/07/04 13:57:03;;;;;;;4.85;4.07;;;;;;;;;;5067331;28;20201;-72
2023/07/04 13:59:30;;;;;;;6.40;4.35;;;;;;;;;;5068110;28;20341;-73
2023/07/04 14:01:57;;;;;;;5.38;4.30;;;;;;;;;;5067248;28;20202;-73
2023/07/04 14:04:26;;;;;;;6.32;4.50;;;;;;;;;;5071575;28;20284;-73
2023/07/04 14:06:54;;;;;;;5.38;4.07;;;;;;;;;;5073775;28;20199;-74
2023/07/04 14:09:21;;;;;;;5.78;4.50;;;;;;;;;;5072171;28;20223;-73
2023/07/04 14:11:49;;;;;;;6.70;4.07;;;;;;;;;;5071901;28;20202;-73
2023/07/04 14:14:16;;;;;;;5.40;3.92;;;;;;;;;;5076546;28;20217;-74
2023/07/04 14:16:43;;;;;;;4.95;4.10;;;;;;;;;;5077861;28;20203;-73
2023/07/04 14:19:10;;;;;;;5.47;4.07;;;;;;;;;;5071530;28;20218;-72
2023/07/04 14:21:39;;;;;;;7.18;4.65;;;;;;;;;;5075533;28;20330;-72
2023/07/04 14:24:06;;;;;;;5.88;4.60;;;;;;;;;;5074961;28;20212;-73
2023/07/04 14:26:33;;;;;;;7.93;4.35;;;;;;;;;;5079629;28;20261;-73
2023/07/04 14:29:00;;;;;;;5.70;4.40;;;;;;;;;;5073409;28;20203;-73
2023/07/04 14:31:28;;;;;;;5.38;4.00;;;;;;;;;;5072855;28;20199;-75
2023/07/04 14:33:57;;;;;;;4.65;4.13;;;;;;;;;;5080682;28;20206;-71
2023/07/04 14:36:25;;;;;;;6.38;3.85;;;;;;;;;;5072884;28;20209;-70
2023/07/04 14:38:53;;;;;;;6.80;4.13;;;;;;;;;;5077161;28;20237;-70
2023/07/04 14:41:26;;;;;;;4.60;3.88;;;;;;;;;;5076954;28;20335;-75
2023/07/04 14:43:54;;;;;;;5.97;3.88;;;;;;;;;;5080050;28;20202;-73
2023/07/04 14:46:21;;;;;;;4.78;3.80;;;;;;;;;;5077777;28;20350;-71
2023/07/04 14:48:48;;;;;;;5.05;4.45;;;;;;;;;;5081083;28;20213;-74
2023/07/04 14:51:16;;;;;;;6.90;4.20;;;;;;;;;;5073676;28;20217;-74
2023/07/04 14:53:43;;;;;;;6.85;4.30;;;;;;;;;;5070321;28;20202;-75